Time;durP1;ratioP1;P1;durP2;ratioP2;P2;SDS_P1;SDS_P2;PMS_P1;PMS_P2;Temp;Humidity;BMP_temperature;BMP_pressure;BME280_temperature;BME280_humidity;BME280_pressure;Samples;Min_cycle;Max_cycle;Signal;HPM_P1;HPM_P2
2024/04/20 00:00:30;0.00;0.00;0.62;0.00;0.00;0.62;2.00;0.70;;;22.50;21.70;;;;;;2051337;62;20471;-64
2024/04/20 00:03:14;0.00;0.00;0.62;0.00;0.00;0.62;1.30;0.70;;;22.40;21.60;;;;;;2051534;62;20470;-64
2024/04/20 00:06:03;0.00;0.00;0.62;0.00;0.00;0.62;1.40;0.83;;;22.40;21.60;;;;;;2051337;54;20462;-64
2024/04/20 00:08:51;0.00;0.00;0.62;0.00;0.00;0.62;1.30;0.70;;;22.40;21.70;;;;;;2047796;62;20463;-64
2024/04/20 00:11:35;0.00;0.00;0.62;0.00;0.00;0.62;2.03;0.90;;;22.40;21.60;;;;;;2051331;62;20505;-64
2024/04/20 00:14:20;0.00;0.00;0.62;0.00;0.00;0.62;1.30;0.70;;;22.40;21.60;;;;;;2049844;62;20466;-65
2024/04/20 00:17:05;0.00;0.00;0.62;0.00;0.00;0.62;1.30;0.60;;;22.40;21.60;;;;;;2051859;62;20463;-65
2024/04/20 00:19:51;0.00;0.00;0.62;0.00;0.00;0.62;1.30;0.70;;;22.40;21.70;;;;;;2051418;62;20506;-64
2024/04/20 00:22:36;0.00;0.00;0.62;0.00;0.00;0.62;1.87;0.80;;;22.40;21.70;;;;;;2051281;62;20884;-63
2024/04/20 00:25:23;0.00;0.00;0.62;0.00;0.00;0.62;1.40;0.80;;;22.40;21.60;;;;;;2051743;62;20450;-65
2024/04/20 00:28:09;0.00;0.00;0.62;0.00;0.00;0.62;1.60;0.77;;;22.40;21.60;;;;;;2051599;62;21081;-64
2024/04/20 00:30:58;0.00;0.00;0.62;0.00;0.00;0.62;1.57;0.70;;;22.40;21.60;;;;;;2052125;62;20458;-64
2024/04/20 00:33:42;0.00;0.00;0.62;0.00;0.00;0.62;2.63;0.80;;;22.40;21.60;;;;;;2052144;62;20466;-63
2024/04/20 00:36:27;0.00;0.00;0.62;0.00;0.00;0.62;1.30;0.70;;;22.40;21.60;;;;;;2051427;62;20467;-64
2024/04/20 00:39:12;0.00;0.00;0.62;0.00;0.00;0.62;1.70;0.80;;;22.40;21.60;;;;;;2052294;62;20952;-64
2024/04/20 00:42:00;0.00;0.00;0.62;0.00;0.00;0.62;1.67;0.80;;;22.30;21.50;;;;;;2052045;62;20454;-64
2024/04/20 00:44:45;0.00;0.00;0.62;0.00;0.00;0.62;2.33;0.80;;;22.40;21.60;;;;;;2047479;62;20463;-64
2024/04/20 00:47:30;0.00;0.00;0.62;0.00;0.00;0.62;1.70;0.87;;;22.30;21.50;;;;;;2052030;62;20455;-64
2024/04/20 00:50:16;0.00;0.00;0.62;0.00;0.00;0.62;1.40;0.60;;;22.30;21.50;;;;;;2051253;62;21013;-64
2024/04/20 00:53:01;0.00;0.00;0.62;0.00;0.00;0.62;1.40;0.80;;;22.30;21.50;;;;;;2051917;62;20483;-64
2024/04/20 00:55:47;0.00;0.00;0.62;0.00;0.00;0.62;1.60;0.90;;;22.30;21.50;;;;;;2052127;54;21023;-64
2024/04/20 00:58:35;0.00;0.00;0.62;0.00;0.00;0.62;1.50;0.80;;;22.30;21.50;;;;;;2051514;62;20467;-65
2024/04/20 01:01:20;0.00;0.00;0.62;0.00;0.00;0.62;3.53;1.20;;;22.30;21.50;;;;;;2051971;62;20498;-64
2024/04/20 01:04:05;0.00;0.00;0.62;0.00;0.00;0.62;2.33;1.00;;;22.30;21.50;;;;;;2051907;62;20471;-65
2024/04/20 01:06:49;0.00;0.00;0.62;0.00;0.00;0.62;1.90;0.80;;;22.30;21.50;;;;;;2051582;62;20548;-65
2024/04/20 01:09:34;0.00;0.00;0.62;0.00;0.00;0.62;1.90;0.90;;;22.30;21.50;;;;;;2051585;62;20524;-64
2024/04/20 01:12:19;0.00;0.00;0.62;0.00;0.00;0.62;1.53;1.00;;;22.30;21.50;;;;;;2051813;62;20462;-64
2024/04/20 01:15:06;0.00;0.00;0.62;0.00;0.00;0.62;1.80;0.90;;;22.20;21.50;;;;;;2052298;62;20470;-64
2024/04/20 01:17:52;0.00;0.00;0.62;0.00;0.00;0.62;1.60;0.80;;;22.30;21.50;;;;;;2051957;62;20476;-64
2024/04/20 01:20:37;0.00;0.00;0.62;0.00;0.00;0.62;2.63;1.00;;;22.20;21.50;;;;;;2051255;62;20540;-64
2024/04/20 01:23:23;0.00;0.00;0.62;0.00;0.00;0.62;1.70;0.80;;;22.30;21.50;;;;;;2052049;62;20537;-64
2024/04/20 01:26:10;0.00;0.00;0.62;0.00;0.00;0.62;1.53;0.80;;;22.20;21.50;;;;;;2047764;62;20512;-64
2024/04/20 01:28:55;0.00;0.00;0.62;0.00;0.00;0.62;1.60;1.10;;;22.20;21.50;;;;;;2051408;62;20510;-64
2024/04/20 01:31:40;0.00;0.00;0.62;0.00;0.00;0.62;1.50;0.87;;;22.20;21.50;;;;;;2051709;62;20455;-64
2024/04/20 01:34:26;0.00;0.00;0.62;0.00;0.00;0.62;1.77;1.03;;;22.30;21.50;;;;;;2051964;62;20872;-64
2024/04/20 01:37:11;0.00;0.00;0.62;0.00;0.00;0.62;1.77;1.00;;;22.20;21.40;;;;;;2051908;62;20553;-63
2024/04/20 01:39:56;0.00;0.00;0.62;0.00;0.00;0.62;1.90;1.07;;;22.20;21.40;;;;;;2047589;62;20471;-65
2024/04/20 01:42:43;0.00;0.00;0.62;0.00;0.00;0.62;1.50;0.80;;;22.20;21.40;;;;;;2048769;62;20480;-65
2024/04/20 01:45:12;0.00;0.00;0.62;0.00;0.00;0.62;2.07;0.93;;;22.20;21.40;;;;;;2045999;62;20493;-65
2024/04/20 01:47:39;0.00;0.00;0.62;0.00;0.00;0.62;1.50;0.70;;;22.20;21.40;;;;;;2051943;62;21060;-64
2024/04/20 01:50:07;0.00;0.00;0.62;0.00;0.00;0.62;1.80;1.03;;;22.20;21.40;;;;;;2051187;62;20548;-65
2024/04/20 01:52:34;0.00;0.00;0.62;0.00;0.00;0.62;3.50;1.10;;;22.20;21.40;;;;;;2051899;62;20509;-65
2024/04/20 01:55:01;0.00;0.00;0.62;0.00;0.00;0.62;1.73;1.23;;;22.20;21.40;;;;;;2050565;62;20422;-65
2024/04/20 01:57:27;0.00;0.00;0.62;0.00;0.00;0.62;2.27;1.00;;;22.20;21.40;;;;;;2051878;62;21339;-64
2024/04/20 01:59:56;0.00;0.00;0.62;0.00;0.00;0.62;1.80;1.00;;;22.20;21.40;;;;;;2051981;62;20478;-65
2024/04/20 02:02:22;0.00;0.00;0.62;0.00;0.00;0.62;2.70;0.90;;;22.20;21.40;;;;;;2051198;62;20482;-64
2024/04/20 02:04:49;0.00;0.00;0.62;0.00;0.00;0.62;2.40;1.47;;;22.20;21.30;;;;;;2052018;62;20553;-64
2024/04/20 02:07:15;0.00;0.00;0.62;0.00;0.00;0.62;2.20;0.90;;;22.20;21.30;;;;;;2052021;62;20553;-64
2024/04/20 02:09:43;0.00;0.00;0.62;0.00;0.00;0.62;2.43;1.20;;;22.20;21.30;;;;;;2051003;62;20466;-64
2024/04/20 02:12:10;0.00;0.00;0.62;0.00;0.00;0.62;4.40;1.20;;;22.20;21.30;;;;;;2051933;62;20422;-63
2024/04/20 02:14:37;0.00;0.00;0.62;0.00;0.00;0.62;1.60;0.97;;;22.20;21.30;;;;;;2052057;62;20410;-64
2024/04/20 02:17:05;0.00;0.00;0.62;0.00;0.00;0.62;3.13;1.07;;;22.10;21.20;;;;;;2051430;62;20874;-64
2024/04/20 02:19:32;0.00;0.00;0.62;0.00;0.00;0.62;2.00;1.13;;;22.10;21.20;;;;;;2051782;62;20415;-64
2024/04/20 02:21:58;0.00;0.00;0.62;0.00;0.00;0.62;2.53;1.17;;;22.10;21.20;;;;;;2052038;62;20911;-64
2024/04/20 02:24:24;0.00;0.00;0.62;0.00;0.00;0.62;2.40;1.10;;;22.10;21.10;;;;;;2051152;62;20423;-64
2024/04/20 02:26:51;0.00;0.00;0.62;0.00;0.00;0.62;2.10;0.87;;;22.10;21.10;;;;;;2052021;62;20426;-64
2024/04/20 02:29:17;0.00;0.00;0.62;0.00;0.00;0.62;1.70;1.00;;;22.10;21.10;;;;;;2051968;62;20867;-64
2024/04/20 02:31:44;0.00;0.00;0.62;0.00;0.00;0.62;1.40;0.80;;;22.10;21.10;;;;;;2051043;62;20923;-65
2024/04/20 02:34:31;0.00;0.00;0.62;0.00;0.00;0.62;1.50;0.90;;;22.10;21.60;;;;;;2051971;62;20871;-64
2024/04/20 02:37:15;0.00;0.00;0.62;0.00;0.00;0.62;1.90;0.97;;;22.10;21.10;;;;;;2051834;62;20957;-65
2024/04/20 02:40:01;0.00;0.00;0.62;0.00;0.00;0.62;1.83;1.20;;;22.10;21.10;;;;;;2047568;62;20537;-64
2024/04/20 02:42:46;0.00;0.00;0.62;0.00;0.00;0.62;1.67;1.10;;;22.10;21.10;;;;;;2051847;62;20506;-64
2024/04/20 02:45:30;0.00;0.00;0.62;0.00;0.00;0.62;1.50;0.87;;;22.10;21.00;;;;;;2051295;62;20467;-65
2024/04/20 02:48:15;0.00;0.00;0.62;0.00;0.00;0.62;1.60;1.00;;;22.10;21.00;;;;;;2051851;62;20531;-65
2024/04/20 02:51:02;0.00;0.00;0.62;0.00;0.00;0.62;1.77;0.90;;;22.10;21.00;;;;;;2051849;62;20475;-65
2024/04/20 02:53:47;0.00;0.00;0.62;0.00;0.00;0.62;1.50;1.00;;;22.10;21.00;;;;;;2051474;62;21101;-64
2024/04/20 02:56:32;0.00;0.00;0.62;0.00;0.00;0.62;1.50;0.87;;;22.00;21.00;;;;;;2051976;62;20532;-64
2024/04/20 02:59:16;0.00;0.00;0.62;0.00;0.00;0.62;1.60;1.00;;;22.00;21.00;;;;;;2052053;62;21086;-64
2024/04/20 03:02:01;0.00;0.00;0.62;0.00;0.00;0.62;1.63;1.13;;;22.00;21.00;;;;;;2046573;62;20540;-64
2024/04/20 03:04:46;0.00;0.00;0.62;0.00;0.00;0.62;3.50;0.80;;;22.00;21.00;;;;;;2046780;62;20480;-64
2024/04/20 03:07:33;0.00;0.00;0.62;0.00;0.00;0.62;2.23;1.10;;;22.00;21.50;;;;;;2047608;62;20467;-65
2024/04/20 03:10:18;0.00;0.00;0.62;0.00;0.00;0.62;2.30;1.20;;;22.00;21.00;;;;;;2051646;62;20459;-64
2024/04/20 03:13:03;0.00;0.00;0.62;0.00;0.00;0.62;1.67;1.10;;;22.00;21.00;;;;;;2051814;62;20508;-64
2024/04/20 03:16:00;0.00;0.00;0.62;0.00;0.00;0.62;2.20;1.20;;;22.00;21.00;;;;;;2051195;62;20479;-64
2024/04/20 03:18:45;0.00;0.00;0.62;0.00;0.00;0.62;1.93;0.90;;;21.90;20.90;;;;;;2051300;62;21015;-64
2024/04/20 03:21:30;0.00;0.00;0.62;0.00;0.00;0.62;1.83;1.10;;;21.90;20.90;;;;;;2051814;62;20515;-65
2024/04/20 03:24:17;0.00;0.00;0.62;0.00;0.00;0.62;1.53;0.80;;;22.00;20.90;;;;;;2051706;62;20528;-64
2024/04/20 03:27:02;0.00;0.00;0.62;0.00;0.00;0.62;1.60;0.90;;;21.90;21.40;;;;;;2051774;62;20555;-64
2024/04/20 03:29:47;0.00;0.00;0.62;0.00;0.00;0.62;1.73;1.07;;;21.90;20.90;;;;;;2051152;62;20463;-64
2024/04/20 03:32:31;0.00;0.00;0.62;0.00;0.00;0.62;1.80;0.90;;;22.00;21.00;;;;;;2051614;62;20539;-65
2024/04/20 03:35:16;0.00;0.00;0.62;0.00;0.00;0.62;2.00;0.90;;;21.90;20.90;;;;;;2051743;62;20930;-64
2024/04/20 03:38:01;0.00;0.00;0.62;0.00;0.00;0.62;1.70;1.10;;;21.90;20.90;;;;;;2051224;62;20548;-64
2024/04/20 03:40:48;0.00;0.00;0.62;0.00;0.00;0.62;3.23;1.00;;;21.90;20.90;;;;;;2051614;62;21005;-65
2024/04/20 03:43:33;0.00;0.00;0.62;0.00;0.00;0.62;1.97;0.80;;;21.90;20.90;;;;;;2051306;62;20482;-64
2024/04/20 03:46:18;0.00;0.00;0.62;0.00;0.00;0.62;1.57;0.93;;;21.90;21.00;;;;;;2051113;62;20864;-65
2024/04/20 03:49:02;0.00;0.00;0.62;0.00;0.00;0.62;1.60;1.10;;;21.90;21.00;;;;;;2047551;62;21008;-64
2024/04/20 03:51:47;0.00;0.00;0.62;0.00;0.00;0.62;1.70;1.00;;;21.90;21.00;;;;;;2050985;62;20461;-64
2024/04/20 03:54:32;0.00;0.00;0.62;0.00;0.00;0.62;1.60;1.00;;;21.90;21.00;;;;;;2051712;62;20524;-64
2024/04/20 03:57:19;0.00;0.00;0.62;0.00;0.00;0.62;1.53;0.80;;;21.90;21.00;;;;;;2051864;62;20465;-64
2024/04/20 04:00:07;0.00;0.00;0.62;0.00;0.00;0.62;1.80;0.90;;;21.90;21.00;;;;;;2050808;62;20471;-64
2024/04/20 04:02:51;0.00;0.00;0.62;0.00;0.00;0.62;1.50;0.90;;;21.90;21.10;;;;;;2052028;62;20524;-64
2024/04/20 04:05:36;0.00;0.00;0.62;0.00;0.00;0.62;2.00;1.13;;;21.90;21.10;;;;;;2052258;62;20854;-64
2024/04/20 04:08:21;0.00;0.00;0.62;0.00;0.00;0.62;1.50;0.83;;;21.90;21.10;;;;;;2051357;62;20970;-64
2024/04/20 04:11:05;0.00;0.00;0.62;0.00;0.00;0.62;1.30;0.70;;;21.90;21.10;;;;;;2047772;62;20471;-64
2024/04/20 04:13:52;0.00;0.00;0.62;0.00;0.00;0.62;1.40;0.90;;;21.80;21.00;;;;;;2051727;62;21248;-64
2024/04/20 04:16:37;0.00;0.00;0.62;0.00;0.00;0.62;1.47;1.00;;;21.80;21.00;;;;;;2047779;62;20536;-64
2024/04/20 04:19:22;0.00;0.00;0.62;0.00;0.00;0.62;1.97;0.80;;;21.80;21.60;;;;;;2052282;62;20458;-65
2024/04/20 04:22:07;0.00;0.00;0.62;0.00;0.00;0.62;1.70;1.00;;;21.90;21.10;;;;;;2051406;62;20936;-64
2024/04/20 04:24:52;0.00;0.00;0.62;0.00;0.00;0.62;1.50;1.00;;;21.90;21.10;;;;;;2052059;62;20991;-64
2024/04/20 04:27:36;0.00;0.00;0.62;0.00;0.00;0.62;1.77;0.90;;;21.80;21.10;;;;;;2052300;62;20462;-64
2024/04/20 04:30:24;0.00;0.00;0.62;0.00;0.00;0.62;1.77;1.17;;;21.90;21.20;;;;;;2051271;62;21102;-64
2024/04/20 04:33:09;0.00;0.00;0.62;0.00;0.00;0.62;1.97;0.93;;;21.90;21.10;;;;;;2052062;62;20486;-64
2024/04/20 04:35:58;0.00;0.00;0.62;0.00;0.00;0.62;1.90;1.00;;;21.90;21.10;;;;;;2051784;62;20898;-64
2024/04/20 04:38:42;0.00;0.00;0.62;0.00;0.00;0.62;1.30;0.70;;;21.80;21.10;;;;;;2052080;62;20462;-62
2024/04/20 04:41:27;0.00;0.00;0.62;0.00;0.00;0.62;1.57;0.90;;;21.80;21.10;;;;;;2052119;62;20455;-63
2024/04/20 04:44:12;0.00;0.00;0.62;0.00;0.00;0.62;1.70;0.80;;;21.90;21.20;;;;;;2051421;62;20479;-64
2024/04/20 04:46:59;0.00;0.00;0.62;0.00;0.00;0.62;1.60;0.93;;;21.90;21.20;;;;;;2052083;62;20478;-64
2024/04/20 04:49:44;0.00;0.00;0.62;0.00;0.00;0.62;1.43;0.93;;;21.90;21.20;;;;;;2052152;62;20486;-65
2024/04/20 04:52:30;0.00;0.00;0.62;0.00;0.00;0.62;1.63;1.10;;;21.80;21.10;;;;;;2051410;62;20491;-64
2024/04/20 04:55:15;0.00;0.00;0.62;0.00;0.00;0.62;1.33;0.77;;;21.90;21.20;;;;;;2052002;62;20863;-64
2024/04/20 04:57:59;0.00;0.00;0.62;0.00;0.00;0.62;1.63;0.87;;;21.90;21.20;;;;;;2051583;62;20459;-65
2024/04/20 05:00:45;0.00;0.00;0.62;0.00;0.00;0.62;1.53;0.90;;;21.90;21.20;;;;;;2051691;62;20528;-64
2024/04/20 05:03:33;0.00;0.00;0.62;0.00;0.00;0.62;1.40;0.73;;;21.80;21.10;;;;;;2052023;62;20925;-65
2024/04/20 05:06:18;0.00;0.00;0.62;0.00;0.00;0.62;1.60;0.90;;;21.80;21.10;;;;;;2051455;62;20466;-65
2024/04/20 05:09:03;0.00;0.00;0.62;0.00;0.00;0.62;1.40;0.80;;;21.90;21.20;;;;;;2051893;62;20889;-64
2024/04/20 05:11:48;0.00;0.00;0.62;0.00;0.00;0.62;1.70;0.90;;;21.90;21.20;;;;;;2051899;62;20470;-64
2024/04/20 05:14:33;0.00;0.00;0.62;0.00;0.00;0.62;1.40;0.90;;;21.90;21.20;;;;;;2051381;62;20454;-64
2024/04/20 05:17:17;0.00;0.00;0.62;0.00;0.00;0.62;1.33;0.73;;;21.90;21.20;;;;;;2051840;62;20532;-64
2024/04/20 05:20:06;0.00;0.00;0.62;0.00;0.00;0.62;1.73;1.10;;;21.90;21.20;;;;;;2051969;62;20466;-64
2024/04/20 05:22:51;0.00;0.00;0.62;0.00;0.00;0.62;1.60;1.03;;;21.90;21.20;;;;;;2051955;62;20472;-64
2024/04/20 05:25:36;0.00;0.00;0.62;0.00;0.00;0.62;1.67;1.00;;;21.90;21.10;;;;;;2052076;54;21090;-64
2024/04/20 05:28:22;0.00;0.00;0.62;0.00;0.00;0.62;2.27;1.30;;;21.90;21.10;;;;;;2050999;62;20528;-64
2024/04/20 05:31:08;0.00;0.00;0.62;0.00;0.00;0.62;1.97;1.10;;;21.90;21.10;;;;;;2044151;62;20472;-63
2024/04/20 05:33:52;0.00;0.00;0.62;0.00;0.00;0.62;1.87;1.30;;;21.90;21.10;;;;;;2046664;62;21103;-64
2024/04/20 05:36:40;0.00;0.00;0.62;0.00;0.00;0.62;1.90;1.20;;;21.90;21.70;;;;;;2048656;62;20466;-64
2024/04/20 05:39:24;0.00;0.00;0.62;0.00;0.00;0.62;3.17;1.20;;;21.90;21.10;;;;;;2049926;62;20467;-64
2024/04/20 05:42:09;0.00;0.00;0.62;0.00;0.00;0.62;2.00;1.47;;;21.90;21.10;;;;;;2051651;62;21068;-64
2024/04/20 05:44:55;0.00;0.00;0.62;0.00;0.00;0.62;2.00;1.40;;;21.90;21.10;;;;;;2051642;62;20535;-63
2024/04/20 05:47:40;0.00;0.00;0.62;0.00;0.00;0.62;2.20;1.40;;;21.90;21.10;;;;;;2051636;62;20469;-63
2024/04/20 05:50:25;0.00;0.00;0.62;0.00;0.00;0.62;1.87;1.23;;;21.90;21.10;;;;;;2050972;62;20515;-64
2024/04/20 05:53:12;0.00;0.00;0.62;0.00;0.00;0.62;2.00;1.30;;;21.90;21.10;;;;;;2051555;62;20932;-64
2024/04/20 05:55:57;0.00;0.00;0.62;0.00;0.00;0.62;2.83;1.67;;;21.90;21.10;;;;;;2051838;62;20474;-64
2024/04/20 05:58:42;0.00;0.00;0.62;0.00;0.00;0.62;2.43;1.53;;;21.90;21.10;;;;;;2050952;62;20861;-63
2024/04/20 06:01:27;0.00;0.00;0.62;0.00;0.00;0.62;2.90;2.23;;;21.90;21.10;;;;;;2051594;62;20520;-64
2024/04/20 06:04:12;0.00;0.00;0.62;0.00;0.00;0.62;2.30;1.70;;;21.90;21.10;;;;;;2051789;62;20528;-63
2024/04/20 06:06:58;0.00;0.00;0.62;0.00;0.00;0.62;3.90;2.27;;;21.90;21.10;;;;;;2051444;62;20486;-64
2024/04/20 06:09:46;0.00;0.00;0.62;0.00;0.00;0.62;2.70;2.00;;;21.90;21.10;;;;;;2051073;62;20486;-64
2024/04/20 06:12:31;0.00;0.00;0.62;0.00;0.00;0.62;3.20;1.83;;;21.90;21.10;;;;;;2050879;62;20462;-64
2024/04/20 06:15:16;0.00;0.00;0.62;0.00;0.00;0.62;4.10;3.10;;;21.90;21.10;;;;;;2051668;62;20466;-65
2024/04/20 06:18:01;0.00;0.00;0.62;0.00;0.00;0.62;3.87;2.80;;;21.90;21.10;;;;;;2044162;62;20535;-64
2024/04/20 06:20:51;0.00;0.00;0.62;0.00;0.00;0.62;3.30;2.43;;;21.90;21.00;;;;;;2050786;62;20475;-64
2024/04/20 06:23:36;0.00;0.00;0.62;0.00;0.00;0.62;2.80;2.30;;;21.90;21.10;;;;;;2051536;62;20506;-64
2024/04/20 06:26:23;0.00;0.00;0.62;0.00;0.00;0.62;3.87;2.80;;;21.90;21.10;;;;;;2051972;62;21058;-64
2024/04/20 06:29:08;0.00;0.00;0.62;0.00;0.00;0.62;3.80;2.90;;;21.90;21.10;;;;;;2047109;62;20475;-64
2024/04/20 06:31:53;0.00;0.00;0.62;0.00;0.00;0.62;3.83;2.90;;;21.90;21.00;;;;;;2051331;62;20505;-64
2024/04/20 06:34:38;0.00;0.00;0.62;0.00;0.00;0.62;3.77;3.20;;;21.90;21.10;;;;;;2051181;62;20482;-64
2024/04/20 06:37:22;0.00;0.00;0.62;0.00;0.00;0.62;4.03;3.00;;;21.90;21.00;;;;;;2051756;62;20455;-64
2024/04/20 06:40:08;0.00;0.00;0.62;0.00;0.00;0.62;4.33;3.20;;;21.90;21.00;;;;;;2051563;62;20458;-64
2024/04/20 06:42:55;0.00;0.00;0.62;0.00;0.00;0.62;3.90;3.00;;;22.00;21.10;;;;;;2050870;62;21319;-64
2024/04/20 06:45:41;0.00;0.00;0.62;0.00;0.00;0.62;3.00;2.40;;;22.00;21.10;;;;;;2051544;62;20459;-64
2024/04/20 06:48:26;0.00;0.00;0.62;0.00;0.00;0.62;4.00;2.83;;;21.90;21.00;;;;;;2051950;62;20521;-64
2024/04/20 06:51:11;0.00;0.00;0.62;0.00;0.00;0.62;3.70;2.80;;;21.90;21.00;;;;;;2050921;62;20919;-64
2024/04/20 06:53:56;0.00;0.00;0.62;0.00;0.00;0.62;3.73;2.70;;;21.90;21.00;;;;;;2051439;62;20929;-64
2024/04/20 06:56:40;0.00;0.00;0.62;0.00;0.00;0.62;6.07;2.93;;;21.90;21.00;;;;;;2051158;62;20577;-64
2024/04/20 06:59:27;0.00;0.00;0.62;0.00;0.00;0.62;3.47;2.60;;;21.90;21.00;;;;;;2051332;62;20512;-64
2024/04/20 07:02:15;0.00;0.00;0.62;0.00;0.00;0.62;4.40;3.10;;;22.00;21.00;;;;;;2051810;62;20465;-64
2024/04/20 07:05:00;0.00;0.00;0.62;0.00;0.00;0.62;5.10;3.30;;;21.90;20.90;;;;;;2051032;62;20487;-64
2024/04/20 07:07:45;0.00;0.00;0.62;0.00;0.00;0.62;3.07;2.50;;;22.00;21.00;;;;;;2051592;62;20466;-63
2024/04/20 07:10:30;0.00;0.00;0.62;0.00;0.00;0.62;5.37;2.67;;;21.90;20.90;;;;;;2046130;62;20524;-64
2024/04/20 07:13:15;0.00;0.00;0.62;0.00;0.00;0.62;4.33;2.73;;;21.90;20.90;;;;;;2050716;62;20487;-64
2024/04/20 07:16:02;0.00;0.00;0.62;0.00;0.00;0.62;3.63;2.70;;;22.00;20.90;;;;;;2051505;62;20471;-63
2024/04/20 07:18:47;0.00;0.00;0.62;0.00;0.00;0.62;4.30;3.13;;;21.90;20.90;;;;;;2050674;62;20521;-64
2024/04/20 07:21:33;0.00;0.00;0.62;0.00;0.00;0.62;4.30;3.27;;;22.00;20.90;;;;;;2049858;62;20566;-63
2024/04/20 07:24:19;0.00;0.00;0.62;0.00;0.00;0.62;4.30;3.43;;;22.00;20.90;;;;;;2051947;62;20480;-64
2024/04/20 07:27:05;0.00;0.00;0.62;0.00;0.00;0.62;3.93;3.03;;;21.90;20.90;;;;;;2050874;62;20505;-64
2024/04/20 07:29:49;0.00;0.00;0.62;0.00;0.00;0.62;3.40;2.53;;;22.00;20.90;;;;;;2051536;62;20449;-63
2024/04/20 07:32:37;0.00;0.00;0.62;0.00;0.00;0.62;4.70;3.07;;;22.00;20.90;;;;;;2051633;62;20471;-64
2024/04/20 07:35:21;0.00;0.00;0.62;0.00;0.00;0.62;5.37;3.67;;;22.00;20.90;;;;;;2051050;62;20540;-63
2024/04/20 07:38:06;0.00;0.00;0.62;0.00;0.00;0.62;4.67;3.77;;;22.00;21.00;;;;;;2052026;62;20458;-64
2024/04/20 07:40:51;0.00;0.00;0.62;0.00;0.00;0.62;4.87;3.47;;;22.00;20.90;;;;;;2050953;62;20515;-62
2024/04/20 07:43:36;0.00;0.00;0.62;0.00;0.00;0.62;5.27;3.50;;;22.00;20.90;;;;;;2050970;62;21109;-64
2024/04/20 07:46:21;0.00;0.00;0.62;0.00;0.00;0.62;4.20;3.30;;;22.00;20.90;;;;;;2046991;62;20470;-64
2024/04/20 07:49:08;0.00;0.00;0.62;0.00;0.00;0.62;5.70;3.33;;;22.00;20.90;;;;;;2051407;62;20539;-64
2024/04/20 07:51:53;0.00;0.00;0.62;0.00;0.00;0.62;4.87;3.43;;;22.00;20.90;;;;;;2052051;54;20911;-63
2024/04/20 07:54:37;0.00;0.00;0.62;0.00;0.00;0.62;5.33;3.57;;;22.00;20.90;;;;;;2052348;62;20453;-63
2024/04/20 07:57:22;0.00;0.00;0.62;0.00;0.00;0.62;4.60;3.37;;;22.00;20.90;;;;;;2051453;62;20874;-64
2024/04/20 08:00:08;0.00;0.00;0.62;0.00;0.00;0.62;3.73;3.33;;;22.00;20.90;;;;;;2051954;62;20474;-64
2024/04/20 08:02:53;0.00;0.00;0.62;0.00;0.00;0.62;5.33;2.77;;;22.00;20.90;;;;;;2052058;62;20508;-64
2024/04/20 08:05:40;0.00;0.00;0.62;0.00;0.00;0.62;4.50;3.00;;;22.00;20.90;;;;;;2052178;62;20458;-64
2024/04/20 08:08:25;0.00;0.00;0.62;0.00;0.00;0.62;4.40;3.07;;;22.00;20.80;;;;;;2052164;62;20468;-64
2024/04/20 08:11:09;0.00;0.00;0.62;0.00;0.00;0.62;4.23;2.90;;;22.00;20.90;;;;;;2051475;62;20509;-64
2024/04/20 08:13:54;0.00;0.00;0.62;0.00;0.00;0.62;4.23;2.93;;;22.00;20.90;;;;;;2052043;62;20503;-64
2024/04/20 08:16:39;0.00;0.00;0.62;0.00;0.00;0.62;4.30;3.10;;;22.00;20.80;;;;;;2052325;62;20522;-64
2024/04/20 08:19:23;0.00;0.00;0.62;0.00;0.00;0.62;4.60;3.50;;;22.00;21.40;;;;;;2051530;62;20462;-64
2024/04/20 08:22:11;0.00;0.00;0.62;0.00;0.00;0.62;4.30;3.43;;;22.00;20.80;;;;;;2052085;62;20455;-64
2024/04/20 08:24:56;0.00;0.00;0.62;0.00;0.00;0.62;5.50;3.77;;;22.00;20.80;;;;;;2052220;62;20450;-64
2024/04/20 08:27:40;0.00;0.00;0.62;0.00;0.00;0.62;4.10;3.63;;;22.10;20.80;;;;;;2053198;62;20544;-64
2024/04/20 08:30:25;0.00;0.00;0.62;0.00;0.00;0.62;3.57;2.40;;;22.10;20.80;;;;;;2057014;62;20461;-64
2024/04/20 08:33:10;0.00;0.00;0.62;0.00;0.00;0.62;3.10;2.50;;;22.10;20.80;;;;;;2054999;62;20471;-63
2024/04/20 08:35:55;0.00;0.00;0.62;0.00;0.00;0.62;3.60;2.50;;;22.10;20.80;;;;;;2052225;62;20462;-61
2024/04/20 08:38:42;0.00;0.00;0.62;0.00;0.00;0.62;4.70;3.40;;;22.10;20.80;;;;;;2047902;62;20462;-64
2024/04/20 08:41:28;0.00;0.00;0.62;0.00;0.00;0.62;4.30;3.27;;;22.10;20.80;;;;;;2050715;62;20515;-65
2024/04/20 08:44:18;0.00;0.00;0.62;0.00;0.00;0.62;4.47;3.40;;;22.10;20.80;;;;;;2051889;62;20466;-65
2024/04/20 08:47:04;0.00;0.00;0.62;0.00;0.00;0.62;3.90;3.10;;;22.10;20.80;;;;;;2051934;62;20548;-65
2024/04/20 08:49:51;0.00;0.00;0.62;0.00;0.00;0.62;4.20;2.80;;;22.10;20.80;;;;;;2051542;62;21101;-64
2024/04/20 08:52:37;0.00;0.00;0.62;0.00;0.00;0.62;3.63;2.70;;;22.10;20.70;;;;;;2051916;62;20482;-64
2024/04/20 08:55:26;0.00;0.00;0.62;0.00;0.00;0.62;5.90;4.00;;;22.10;20.70;;;;;;2051340;62;20471;-64
2024/04/20 08:58:11;0.00;0.00;0.62;0.00;0.00;0.62;3.70;2.83;;;22.10;20.70;;;;;;2051721;62;20455;-65
2024/04/20 09:01:00;0.00;0.00;0.62;0.00;0.00;0.62;3.20;2.80;;;22.10;20.70;;;;;;2051830;62;20524;-65
2024/04/20 09:03:44;0.00;0.00;0.62;0.00;0.00;0.62;3.50;2.77;;;22.10;20.70;;;;;;2051059;62;20471;-64
2024/04/20 09:06:30;0.00;0.00;0.62;0.00;0.00;0.62;3.60;2.57;;;22.10;20.70;;;;;;2051418;62;20459;-65
2024/04/20 09:09:16;0.00;0.00;0.62;0.00;0.00;0.62;4.17;3.23;;;22.10;21.10;;;;;;2051119;62;20620;-65
2024/04/20 09:12:05;0.00;0.00;0.62;0.00;0.00;0.62;2.80;2.00;;;22.10;20.40;;;;;;2046380;62;20513;-64
2024/04/20 09:14:55;0.00;0.00;0.62;0.00;0.00;0.62;4.27;3.03;;;22.10;20.20;;;;;;2046755;62;21019;-65
2024/04/20 09:17:40;0.00;0.00;0.62;0.00;0.00;0.62;4.23;2.90;;;22.10;20.20;;;;;;2047624;62;20505;-65
2024/04/20 09:20:26;0.00;0.00;0.62;0.00;0.00;0.62;5.53;3.47;;;22.10;20.20;;;;;;2051788;62;20462;-65
2024/04/20 09:23:11;0.00;0.00;0.62;0.00;0.00;0.62;3.37;2.73;;;22.10;20.20;;;;;;2051802;62;20449;-64
2024/04/20 09:25:56;0.00;0.00;0.62;0.00;0.00;0.62;5.40;3.80;;;22.10;20.20;;;;;;2051191;62;20481;-64
2024/04/20 09:28:47;0.00;0.00;0.62;0.00;0.00;0.62;4.07;3.47;;;22.10;20.20;;;;;;2051893;62;20471;-65
2024/04/20 09:31:32;0.00;0.00;0.62;0.00;0.00;0.62;3.20;2.50;;;22.10;20.20;;;;;;2051825;62;20493;-64
2024/04/20 09:34:19;0.00;0.00;0.62;0.00;0.00;0.62;4.33;3.50;;;22.10;20.20;;;;;;2049645;62;20536;-64
2024/04/20 09:37:05;0.00;0.00;0.62;0.00;0.00;0.62;4.27;3.20;;;22.10;20.20;;;;;;2051862;62;20467;-65
2024/04/20 09:39:51;0.00;0.00;0.62;0.00;0.00;0.62;3.97;3.03;;;22.10;20.20;;;;;;2051232;62;20868;-65
2024/04/20 09:42:36;0.00;0.00;0.62;0.00;0.00;0.62;3.23;2.43;;;22.10;20.20;;;;;;2051813;62;20478;-64
2024/04/20 09:45:27;0.00;0.00;0.62;0.00;0.00;0.62;2.87;2.23;;;22.20;20.30;;;;;;2052069;62;20523;-65
2024/04/20 09:48:16;0.00;0.00;0.62;0.00;0.00;0.62;3.33;2.20;;;22.10;20.00;;;;;;2051112;62;20542;-65
2024/04/20 09:51:11;0.00;0.00;0.62;0.00;0.00;0.62;6.50;2.87;;;22.20;19.80;;;;;;2051115;62;21108;-65
2024/04/20 09:54:04;0.00;0.00;0.62;0.00;0.00;0.62;4.17;2.90;;;22.20;19.80;;;;;;2051271;62;20482;-65
2024/04/20 09:56:51;0.00;0.00;0.62;0.00;0.00;0.62;3.10;2.50;;;22.20;19.80;;;;;;2051578;62;20478;-64
2024/04/20 09:59:36;0.00;0.00;0.62;0.00;0.00;0.62;4.57;3.43;;;22.20;19.70;;;;;;2051017;62;20462;-64
2024/04/20 10:02:26;0.00;0.00;0.62;0.00;0.00;0.62;4.90;3.70;;;22.20;19.70;;;;;;2050950;62;20479;-63
2024/04/20 10:05:15;0.00;0.00;0.62;0.00;0.00;0.62;4.30;3.10;;;22.20;19.80;;;;;;2051681;62;20524;-64
2024/04/20 10:08:02;0.00;0.00;0.62;0.00;0.00;0.62;5.27;4.10;;;22.20;19.80;;;;;;2051963;62;20474;-64
2024/04/20 10:10:47;0.00;0.00;0.62;0.00;0.00;0.62;4.23;3.40;;;22.20;19.80;;;;;;2050770;62;20457;-64
2024/04/20 10:13:33;0.00;0.00;0.62;0.00;0.00;0.62;4.70;3.90;;;22.20;19.80;;;;;;2051582;62;20528;-64
2024/04/20 10:16:19;0.00;0.00;0.62;0.00;0.00;0.62;4.80;3.83;;;22.20;19.70;;;;;;2046996;62;20467;-64
2024/04/20 10:19:06;0.00;0.00;0.62;0.00;0.00;0.62;4.70;3.67;;;22.20;19.70;;;;;;2051700;62;20455;-66
2024/04/20 10:21:52;0.00;0.00;0.62;0.00;0.00;0.62;4.70;3.77;;;22.20;19.60;;;;;;2051703;62;20466;-65
2024/04/20 10:24:37;0.00;0.00;0.62;0.00;0.00;0.62;5.40;3.57;;;22.20;19.60;;;;;;2050841;62;20472;-65
2024/04/20 10:27:25;0.00;0.00;0.62;0.00;0.00;0.62;5.10;3.10;;;22.20;20.10;;;;;;2051754;62;20467;-64
2024/04/20 10:30:20;0.00;0.00;0.62;0.00;0.00;0.62;4.50;3.80;;;22.30;19.60;;;;;;2051729;62;20528;-64
2024/04/20 10:33:07;0.00;0.00;0.62;0.00;0.00;0.62;4.60;4.07;;;22.30;19.50;;;;;;2050848;62;21096;-64
2024/04/20 10:36:06;0.00;0.00;0.62;0.00;0.00;0.62;3.70;3.03;;;22.30;19.50;;;;;;2051488;62;20916;-64
2024/04/20 10:39:02;0.00;0.00;0.62;0.00;0.00;0.62;3.83;3.43;;;22.30;19.40;;;;;;2051163;62;20544;-63
2024/04/20 10:41:47;0.00;0.00;0.62;0.00;0.00;0.62;3.73;3.23;;;22.30;19.30;;;;;;2051557;62;20459;-64
2024/04/20 10:44:31;0.00;0.00;0.62;0.00;0.00;0.62;4.70;3.47;;;22.30;19.30;;;;;;2051735;62;20923;-64
2024/04/20 10:47:21;0.00;0.00;0.62;0.00;0.00;0.62;5.43;3.53;;;22.30;19.30;;;;;;2050889;62;21024;-64